Time;durP1;ratioP1;P1;durP2;ratioP2;P2;SDS_P1;SDS_P2;PMS_P1;PMS_P2;Temp;Humidity;BMP_temperature;BMP_pressure;BME280_temperature;BME280_humidity;BME280_pressure;Samples;Min_cycle;Max_cycle;Signal;HPM_P1;HPM_P2
2023/12/28 00:01:50;;;;;;;0.20;0.20;;;;;;;8.52;60.88;102413.38;4957910;28;20030;-89
2023/12/28 00:04:16;;;;;;;0.20;0.20;;;;;;;8.31;61.70;102396.38;4974789;28;20030;-88
2023/12/28 00:06:42;;;;;;;0.20;0.20;;;;;;;8.48;61.70;102410.84;4941735;28;20065;-89
2023/12/28 00:09:08;;;;;;;0.20;0.20;;;;;;;8.65;60.79;102408.91;4957845;28;20110;-90
2023/12/28 00:11:34;;;;;;;0.20;0.20;;;;;;;8.48;60.77;102395.38;4942024;28;20031;-89
2023/12/28 00:14:00;;;;;;;0.20;0.20;;;;;;;8.31;61.96;102409.28;4957452;28;20130;-89
2023/12/28 00:16:27;;;;;;;0.10;0.10;;;;;;;8.08;61.94;102385.50;4941374;28;20047;-90
2023/12/28 00:18:52;;;;;;;0.10;0.10;;;;;;;8.23;62.26;102398.19;4941760;28;20023;-88
2023/12/28 00:21:18;;;;;;;0.10;0.10;;;;;;;8.21;62.00;102405.09;4957379;28;20117;-89
2023/12/28 00:23:43;;;;;;;0.10;0.10;;;;;;;8.08;62.49;102403.53;4957604;28;20035;-89
2023/12/28 00:26:09;;;;;;;0.13;0.13;;;;;;;7.93;62.53;102404.53;4957074;28;20126;-90
2023/12/28 00:28:34;;;;;;;0.10;0.10;;;;;;;7.75;63.23;102408.13;4957432;28;20486;-89
2023/12/28 00:31:00;;;;;;;0.10;0.10;;;;;;;7.67;63.32;102386.75;4957153;28;20508;-89
2023/12/28 00:33:25;;;;;;;0.10;0.10;;;;;;;7.78;63.13;102407.25;4957356;28;20027;-90
2023/12/28 00:35:51;;;;;;;0.10;0.10;;;;;;;7.74;63.34;102402.97;4957200;28;20027;-89
2023/12/28 00:38:16;;;;;;;0.10;0.10;;;;;;;7.65;63.85;102411.63;4974644;28;20035;-91
2023/12/28 00:40:42;;;;;;;0.20;0.20;;;;;;;7.63;64.14;102412.53;4974455;28;20031;-89
2023/12/28 00:43:07;;;;;;;0.10;0.10;;;;;;;7.44;64.25;102384.34;4957425;28;20473;-88
2023/12/28 00:45:33;;;;;;;0.10;0.10;;;;;;;7.64;63.95;102420.22;4974156;28;20090;-89
2023/12/28 00:47:58;;;;;;;0.10;0.10;;;;;;;7.76;63.29;102429.56;4957281;28;20457;-88
2023/12/28 00:50:27;;;;;;;0.10;0.10;;;;;;;7.71;63.96;102429.63;4957100;28;20524;-90
2023/12/28 00:52:52;;;;;;;0.10;0.10;;;;;;;7.65;63.99;102432.25;4957012;28;20034;-89
2023/12/28 00:55:18;;;;;;;0.20;0.20;;;;;;;7.48;64.12;102403.22;4957056;28;20019;-91
2023/12/28 00:57:43;;;;;;;0.10;0.10;;;;;;;7.75;63.28;102440.75;4956733;28;20034;-89
2023/12/28 01:00:09;;;;;;;0.20;0.20;;;;;;;7.67;63.42;102442.53;4956939;28;20038;-89
2023/12/28 01:02:35;;;;;;;0.20;0.20;;;;;;;7.57;63.56;102436.63;4940882;28;20062;-88
2023/12/28 01:05:00;;;;;;;0.20;0.20;;;;;;;7.53;63.99;102437.50;4957006;28;20111;-90
2023/12/28 01:07:26;;;;;;;0.20;0.20;;;;;;;7.56;64.50;102434.88;4956971;28;20030;-89
2023/12/28 01:09:51;;;;;;;0.20;0.20;;;;;;;7.56;64.60;102426.31;4956908;28;20037;-88
2023/12/28 01:12:17;;;;;;;0.20;0.20;;;;;;;7.48;64.71;102428.97;4955461;28;20038;-88
2023/12/28 01:14:42;;;;;;;0.10;0.10;;;;;;;7.38;64.86;102428.19;4956118;28;20027;-88
2023/12/28 01:17:08;;;;;;;0.10;0.10;;;;;;;7.43;64.47;102431.56;4956833;28;20034;-89
2023/12/28 01:19:33;;;;;;;0.10;0.10;;;;;;;7.37;64.64;102420.44;4973851;28;20035;-87
2023/12/28 01:21:59;;;;;;;0.20;0.20;;;;;;;7.38;64.38;102422.19;4956660;28;20034;-89
2023/12/28 01:24:26;;;;;;;0.20;0.20;;;;;;;7.42;64.95;102440.16;4973779;28;20034;-88
2023/12/28 01:26:52;;;;;;;0.10;0.10;;;;;;;7.47;64.56;102429.81;4956879;28;20101;-88
2023/12/28 01:29:17;;;;;;;0.10;0.10;;;;;;;7.37;64.59;102436.75;4940225;28;20031;-88
2023/12/28 01:31:43;;;;;;;0.10;0.10;;;;;;;7.14;65.05;102424.03;4956570;28;20026;-88
2023/12/28 01:34:09;;;;;;;0.20;0.20;;;;;;;7.29;65.14;102438.53;4956180;28;20058;-89
2023/12/28 01:36:34;;;;;;;0.15;0.15;;;;;;;7.31;65.29;102447.09;4956323;28;20106;-89
2023/12/28 01:39:00;;;;;;;0.20;0.20;;;;;;;7.21;66.81;102435.16;4956332;28;20130;-89
2023/12/28 01:41:25;;;;;;;0.10;0.10;;;;;;;7.19;65.92;102435.16;4956152;28;20030;-89
2023/12/28 01:43:51;;;;;;;0.10;0.10;;;;;;;6.98;65.07;102407.00;4955862;28;20493;-89
2023/12/28 01:46:17;;;;;;;0.10;0.10;;;;;;;6.91;66.05;102418.16;4973404;28;20408;-88
2023/12/28 01:48:44;;;;;;;0.10;0.10;;;;;;;6.94;66.52;102433.56;4955872;28;20027;-89
2023/12/28 01:51:11;;;;;;;0.15;0.15;;;;;;;6.92;66.82;102427.59;4955962;28;20089;-89
2023/12/28 01:53:37;;;;;;;0.10;0.10;;;;;;;6.97;66.65;102441.28;4940083;28;20081;-88
2023/12/28 01:56:03;;;;;;;0.10;0.10;;;;;;;6.82;66.52;102434.50;4956039;28;20520;-88
2023/12/28 01:58:28;;;;;;;0.10;0.10;;;;;;;6.88;66.28;102441.31;4955495;28;20027;-89
2023/12/28 02:00:55;;;;;;;0.10;0.10;;;;;;;6.76;65.93;102438.81;4955944;28;20038;-89
2023/12/28 02:03:21;;;;;;;0.10;0.10;;;;;;;6.70;66.48;102436.28;4955708;28;20516;-89
2023/12/28 02:05:47;;;;;;;0.10;0.10;;;;;;;6.57;66.84;102435.44;4955575;28;20027;-88
2023/12/28 02:08:12;;;;;;;0.20;0.20;;;;;;;6.38;67.33;102414.06;4955873;28;20085;-90
2023/12/28 02:10:39;;;;;;;0.20;0.20;;;;;;;6.50;67.52;102439.78;4955552;28;20034;-89
2023/12/28 02:13:04;;;;;;;0.10;0.10;;;;;;;6.46;67.84;102437.19;4972516;28;20043;-90
2023/12/28 02:15:30;;;;;;;0.10;0.10;;;;;;;6.43;67.65;102448.34;4955820;28;20038;-89
2023/12/28 02:18:02;;;;;;;0.10;0.10;;;;;;;6.35;67.89;102429.53;4955537;28;20027;-89
2023/12/28 02:20:31;;;;;;;0.10;0.10;;;;;;;6.20;68.08;102404.72;4955592;28;20156;-88
2023/12/28 02:22:56;;;;;;;0.10;0.10;;;;;;;6.14;68.22;102402.16;4955239;28;20535;-88
2023/12/28 02:25:22;;;;;;;0.10;0.10;;;;;;;6.14;68.04;102409.88;4955637;28;20034;-89
2023/12/28 02:27:48;;;;;;;0.10;0.10;;;;;;;6.14;68.71;102417.56;4972371;28;20037;-89
2023/12/28 02:30:21;;;;;;;0.10;0.10;;;;;;;5.93;68.20;102384.22;4939380;28;20390;-90
2023/12/28 02:33:15;;;;;;;0.10;0.10;;;;;;;6.09;68.08;102424.44;4956065;28;20481;-89
2023/12/28 02:35:45;;;;;;;0.10;0.10;;;;;;;5.98;68.03;102418.44;4972487;28;20093;-90
2023/12/28 02:38:12;;;;;;;0.10;0.10;;;;;;;5.96;68.05;102415.03;4955753;28;20033;-88
2023/12/28 02:40:39;;;;;;;0.20;0.20;;;;;;;5.92;68.44;102418.47;4955178;28;20034;-87
2023/12/28 02:43:07;;;;;;;0.20;0.20;;;;;;;5.85;69.10;102416.72;4955200;28;20110;-89
2023/12/28 02:45:33;;;;;;;0.10;0.10;;;;;;;5.87;68.14;102404.75;4955217;28;20038;-89
2023/12/28 02:47:59;;;;;;;0.20;0.20;;;;;;;5.94;68.63;102433.03;4954994;28;20515;-89
2023/12/28 02:50:25;;;;;;;0.10;0.10;;;;;;;5.90;68.12;102433.91;4954773;28;20054;-89
2023/12/28 02:52:50;;;;;;;0.10;0.10;;;;;;;5.73;68.37;102402.19;4955353;28;20038;-88
2023/12/28 02:55:16;;;;;;;0.20;0.20;;;;;;;5.87;68.57;102421.00;4972428;28;20031;-88
2023/12/28 02:57:43;;;;;;;0.10;0.10;;;;;;;5.80;69.02;102409.03;4954689;28;20090;-90
2023/12/28 03:00:09;;;;;;;0.10;0.10;;;;;;;5.79;69.54;102417.56;4955312;28;20031;-89
2023/12/28 03:02:38;;;;;;;0.10;0.10;;;;;;;5.71;69.36;102391.06;4939055;28;20030;-87
2023/12/28 03:05:04;;;;;;;0.10;0.10;;;;;;;5.89;69.18;102421.00;4971168;28;20109;-88
2023/12/28 03:07:30;;;;;;;0.10;0.10;;;;;;;5.92;69.30;102428.75;4939141;28;20030;-90
2023/12/28 03:09:55;;;;;;;0.10;0.10;;;;;;;5.85;68.83;102425.28;4938771;28;20035;-89
2023/12/28 03:12:22;;;;;;;0.10;0.10;;;;;;;5.83;68.98;102421.03;4954241;28;20093;-89
2023/12/28 03:14:47;;;;;;;0.10;0.10;;;;;;;5.78;69.04;102404.75;4971951;28;20026;-90
2023/12/28 03:17:13;;;;;;;0.20;0.20;;;;;;;5.74;68.58;102403.91;4954998;28;20105;-86
2023/12/28 03:19:39;;;;;;;0.10;0.10;;;;;;;5.61;68.49;102395.34;4955248;28;20031;-88
2023/12/28 03:22:04;;;;;;;0.10;0.10;;;;;;;5.71;69.22;102409.91;4955053;28;20110;-90
2023/12/28 03:24:30;;;;;;;0.10;0.10;;;;;;;5.73;69.07;102422.75;4954616;28;20539;-89
2023/12/28 03:26:55;;;;;;;0.10;0.10;;;;;;;5.64;68.94;102408.19;4954625;28;20023;-88
2023/12/28 03:29:21;;;;;;;0.10;0.10;;;;;;;5.57;68.94;102390.19;4971930;28;20041;-89
2023/12/28 03:31:46;;;;;;;0.10;0.10;;;;;;;5.66;68.52;102406.47;4954921;28;20027;-91
2023/12/28 03:34:12;;;;;;;0.20;0.20;;;;;;;5.56;68.75;102416.72;4955668;28;20034;-89
2023/12/28 03:36:37;;;;;;;0.10;0.10;;;;;;;5.52;69.11;102413.31;4958595;28;20041;-89
2023/12/28 03:39:06;;;;;;;0.10;0.10;;;;;;;5.54;69.41;102416.75;4958584;28;20035;-88
2023/12/28 03:41:31;;;;;;;0.10;0.10;;;;;;;5.48;69.18;102430.41;4943198;28;20132;-90
2023/12/28 03:43:57;;;;;;;0.10;0.10;;;;;;;5.39;69.04;102422.69;4942740;28;20101;-88
2023/12/28 03:46:22;;;;;;;0.10;0.10;;;;;;;5.27;68.71;102398.75;4958315;28;20508;-88
2023/12/28 03:48:48;;;;;;;0.10;0.10;;;;;;;5.31;68.17;102414.16;4942281;28;20034;-88
2023/12/28 03:51:15;;;;;;;0.10;0.10;;;;;;;5.21;68.31;102427.84;4975504;28;20038;-90
2023/12/28 03:53:41;;;;;;;0.10;0.10;;;;;;;5.15;69.07;102432.94;4958833;28;20066;-91
2023/12/28 03:56:07;;;;;;;0.10;0.10;;;;;;;5.09;68.74;102418.38;4958356;28;20496;-91
2023/12/28 03:58:33;;;;;;;0.10;0.10;;;;;;;5.09;68.90;102431.19;4958425;28;20073;-91
2023/12/28 04:00:58;;;;;;;0.10;0.10;;;;;;;5.19;68.91;102425.25;4975984;28;20037;-89
2023/12/28 04:03:24;;;;;;;0.10;0.10;;;;;;;5.27;68.88;102424.41;4959336;28;20035;-84
2023/12/28 04:05:50;;;;;;;0.10;0.10;;;;;;;5.21;69.58;102422.69;4957931;28;20043;-89
2023/12/28 04:08:16;;;;;;;0.10;0.10;;;;;;;5.25;69.69;102434.66;4975250;28;20093;-89
2023/12/28 04:10:41;;;;;;;0.10;0.10;;;;;;;5.16;69.79;102434.66;4957671;28;20094;-89
2023/12/28 04:13:07;;;;;;;0.10;0.10;;;;;;;5.00;70.90;102435.44;4957556;28;20050;-89
2023/12/28 04:15:32;;;;;;;0.10;0.10;;;;;;;4.92;71.37;102439.69;4958303;28;20105;-90
2023/12/28 04:17:58;;;;;;;0.10;0.10;;;;;;;4.60;71.91;102413.09;4975228;28;20042;-86
2023/12/28 04:20:23;;;;;;;0.20;0.20;;;;;;;4.81;71.90;102437.09;4958109;28;20034;-88
2023/12/28 04:22:49;;;;;;;0.10;0.10;;;;;;;4.79;71.41;102443.94;4974940;28;20031;-90
2023/12/28 04:25:16;;;;;;;0.10;0.10;;;;;;;4.56;71.17;102400.25;4941335;28;20026;-90
2023/12/28 04:27:41;;;;;;;0.10;0.10;;;;;;;4.77;71.20;102446.50;4958191;28;20030;-88
2023/12/28 04:30:07;;;;;;;0.10;0.10;;;;;;;4.71;71.15;102456.72;4957489;28;20053;-87
2023/12/28 04:32:33;;;;;;;0.20;0.20;;;;;;;4.67;70.93;102452.44;4941673;28;20031;-88
2023/12/28 04:34:58;;;;;;;0.20;0.20;;;;;;;4.56;70.99;102448.97;4957771;28;20026;-89
2023/12/28 04:37:26;;;;;;;0.20;0.20;;;;;;;4.61;70.71;102449.81;4957063;28;20023;-90
2023/12/28 04:39:52;;;;;;;0.20;0.20;;;;;;;4.54;70.97;102446.41;4958097;28;20031;-89
2023/12/28 04:42:18;;;;;;;0.10;0.10;;;;;;;4.63;70.75;102458.41;4957741;28;20023;-87
2023/12/28 04:44:44;;;;;;;0.10;0.10;;;;;;;4.60;70.84;102458.38;4966255;28;20030;-91
2023/12/28 04:47:09;;;;;;;0.10;0.10;;;;;;;4.28;70.99;102420.63;4956419;28;20073;-89
2023/12/28 04:49:35;;;;;;;0.10;0.10;;;;;;;4.44;71.31;102466.84;4973408;28;20035;-91
2023/12/28 04:52:00;;;;;;;0.10;0.10;;;;;;;4.32;71.46;102442.84;4957247;28;20037;-92
2023/12/28 04:54:27;;;;;;;0.10;0.10;;;;;;;4.45;71.37;102473.69;4973209;28;20085;-92
2023/12/28 04:56:52;;;;;;;0.10;0.10;;;;;;;4.29;71.46;102457.34;4957348;28;20504;-89
2023/12/28 04:59:18;;;;;;;0.10;0.10;;;;;;;4.22;71.81;102455.59;4973522;28;20035;-91
2023/12/28 05:01:44;;;;;;;0.20;0.20;;;;;;;4.39;72.03;102481.31;4973539;28;20492;-91
2023/12/28 05:04:10;;;;;;;0.20;0.20;;;;;;;4.44;71.45;102477.09;4974692;28;20030;-90
2023/12/28 05:06:35;;;;;;;0.10;0.10;;;;;;;4.36;71.54;102478.75;4950476;28;20065;-92
2023/12/28 05:09:01;;;;;;;0.10;0.10;;;;;;;4.21;71.87;102467.53;4938231;28;20055;-92
2023/12/28 05:11:26;;;;;;;0.10;0.10;;;;;;;4.28;72.01;102483.81;4955012;28;20593;-92
2023/12/28 05:13:52;;;;;;;0.10;0.10;;;;;;;4.24;72.35;102480.38;4937280;28;20506;-89
2023/12/28 05:16:18;;;;;;;0.10;0.10;;;;;;;4.26;72.30;102486.38;4964940;28;20101;-92
2023/12/28 05:18:44;;;;;;;0.10;0.10;;;;;;;4.36;71.70;102489.00;4950164;28;20086;-88
2023/12/28 05:21:09;;;;;;;0.10;0.10;;;;;;;4.22;71.89;102482.06;4972582;28;20544;-91
2023/12/28 05:23:35;;;;;;;0.20;0.20;;;;;;;4.22;72.26;102488.88;4972162;28;20485;-87
2023/12/28 05:26:00;;;;;;;0.10;0.10;;;;;;;4.20;72.50;102494.00;4956185;28;20548;-88
2023/12/28 05:28:26;;;;;;;0.10;0.10;;;;;;;4.21;73.11;102487.19;4957509;28;20030;-91
2023/12/28 05:30:51;;;;;;;0.10;0.10;;;;;;;4.17;73.14;102478.63;4973420;28;20093;-89
2023/12/28 05:33:17;;;;;;;0.10;0.10;;;;;;;4.09;72.87;102470.03;4972169;28;20035;-92
2023/12/28 05:35:42;;;;;;;0.20;0.20;;;;;;;4.32;72.48;102493.22;4977265;28;20416;-92
2023/12/28 05:38:08;;;;;;;0.10;0.10;;;;;;;4.31;72.61;102496.63;4939175;28;20417;-93
2023/12/28 05:40:33;;;;;;;0.10;0.10;;;;;;;4.27;72.39;102490.66;4937453;28;20065;-85
2023/12/28 05:42:59;;;;;;;0.10;0.10;;;;;;;4.40;72.11;102512.06;4974592;28;20038;-83
2023/12/28 05:45:24;;;;;;;0.10;0.10;;;;;;;4.34;72.14;102498.38;4955343;28;20034;-89
2023/12/28 05:47:50;;;;;;;0.10;0.10;;;;;;;4.26;71.80;102480.41;4956340;28;20027;-87
2023/12/28 05:50:15;;;;;;;0.20;0.20;;;;;;;4.30;71.99;102506.03;4969041;28;20536;-88
2023/12/28 05:52:41;;;;;;;0.10;0.10;;;;;;;4.24;72.50;102494.91;4938876;28;20039;-88
2023/12/28 05:55:07;;;;;;;0.10;0.10;;;;;;;4.30;72.56;102495.78;4966821;28;20041;-89
2023/12/28 05:57:33;;;;;;;0.15;0.15;;;;;;;4.30;72.33;102489.81;4963023;28;20019;-85
2023/12/28 05:59:58;;;;;;;0.10;0.10;;;;;;;4.31;71.62;102500.06;4936615;28;20078;-89
2023/12/28 06:02:24;;;;;;;0.20;0.20;;;;;;;4.26;72.28;102486.38;4939385;28;20630;-86
2023/12/28 06:04:50;;;;;;;0.10;0.10;;;;;;;4.36;72.10;102494.13;4929655;29;20090;-87
2023/12/28 06:07:15;;;;;;;0.10;0.10;;;;;;;4.28;72.10;102494.91;4961782;28;20058;-85
2023/12/28 06:09:41;;;;;;;0.10;0.10;;;;;;;4.15;72.05;102464.97;4931721;29;20038;-85
2023/12/28 06:12:07;;;;;;;0.10;0.10;;;;;;;4.27;71.94;102490.66;4949967;28;20054;-83
2023/12/28 06:14:32;;;;;;;0.10;0.10;;;;;;;4.23;72.74;102494.06;4952198;28;20062;-82
2023/12/28 06:16:58;;;;;;;0.10;0.10;;;;;;;4.17;72.66;102495.69;4949154;28;20512;-84
2023/12/28 06:19:23;;;;;;;0.10;0.10;;;;;;;3.89;72.28;102467.31;4951930;28;20030;-84
2023/12/28 06:21:49;;;;;;;0.10;0.10;;;;;;;4.12;72.81;102495.66;4967768;28;20030;-83
2023/12/28 06:24:15;;;;;;;0.10;0.10;;;;;;;4.14;72.39;102503.38;4935160;28;20027;-84
2023/12/28 06:26:41;;;;;;;0.10;0.10;;;;;;;4.19;72.31;102487.16;4940107;28;20066;-88
2023/12/28 06:29:07;;;;;;;0.10;0.10;;;;;;;4.32;72.28;102494.09;4955785;28;20122;-91
2023/12/28 06:31:35;;;;;;;0.10;0.10;;;;;;;4.24;72.39;102487.22;4968562;28;20062;-87
2023/12/28 06:34:05;;;;;;;0.10;0.10;;;;;;;4.25;72.19;102486.38;4963287;28;20023;-85
2023/12/28 06:36:30;;;;;;;0.10;0.10;;;;;;;4.21;72.67;102490.59;4919469;28;20035;-86
2023/12/28 06:38:56;;;;;;;0.10;0.10;;;;;;;4.44;72.32;102507.84;4970872;28;20041;-84
2023/12/28 06:41:22;;;;;;;0.10;0.10;;;;;;;4.33;72.59;102512.91;4938750;28;20064;-92
2023/12/28 06:43:47;;;;;;;0.10;0.10;;;;;;;4.34;72.70;102506.06;4937489;28;20023;-83
2023/12/28 06:46:13;;;;;;;0.10;0.10;;;;;;;4.19;73.08;102501.69;4952251;28;20023;-86
2023/12/28 06:48:43;;;;;;;0.10;0.10;;;;;;;4.23;72.91;102498.31;4950339;28;20039;-88
2023/12/28 06:51:09;;;;;;;0.20;0.20;;;;;;;4.37;72.08;102511.22;4961040;28;20575;-91
2023/12/28 06:53:35;;;;;;;0.10;0.10;;;;;;;4.37;71.16;102513.78;4953614;28;20117;-88
2023/12/28 06:56:00;;;;;;;0.10;0.10;;;;;;;4.25;71.54;102514.56;4944111;29;20114;-89
2023/12/28 06:58:26;;;;;;;0.10;0.10;;;;;;;4.30;71.06;102521.41;4952415;29;20493;-84
2023/12/28 07:00:51;;;;;;;0.10;0.10;;;;;;;4.23;70.85;102499.19;4931792;29;20572;-86
2023/12/28 07:03:17;;;;;;;0.10;0.10;;;;;;;4.29;71.10;102518.84;4941258;28;20412;-91
2023/12/28 07:05:43;;;;;;;0.10;0.10;;;;;;;4.22;70.76;102505.13;4955216;28;20026;-89
2023/12/28 07:08:08;;;;;;;0.10;0.10;;;;;;;4.28;70.34;102514.56;4968983;28;20521;-84
2023/12/28 07:10:34;;;;;;;0.10;0.10;;;;;;;4.23;70.20;102511.13;4972132;28;20070;-87
2023/12/28 07:12:59;;;;;;;0.10;0.10;;;;;;;4.13;70.94;102501.63;4948919;29;20051;-88
2023/12/28 07:15:25;;;;;;;0.10;0.10;;;;;;;4.14;71.37;102504.22;4972426;28;20396;-86
2023/12/28 07:17:51;;;;;;;0.10;0.10;;;;;;;4.14;71.80;102488.84;4954805;28;20572;-89
2023/12/28 07:20:17;;;;;;;0.10;0.10;;;;;;;4.43;73.27;102496.75;4974043;28;20053;-89
2023/12/28 07:22:42;;;;;;;0.20;0.20;;;;;;;4.49;70.80;102508.72;4974603;28;20385;-91
2023/12/28 07:25:08;;;;;;;0.10;0.10;;;;;;;4.55;70.29;102507.06;4968578;28;20421;-86
2023/12/28 07:27:34;;;;;;;0.10;0.10;;;;;;;4.57;70.07;102507.06;4959232;28;20030;-89
2023/12/28 07:30:00;;;;;;;0.10;0.10;;;;;;;4.56;70.27;102507.91;4961568;28;20081;-85
2023/12/28 07:32:26;;;;;;;0.10;0.10;;;;;;;4.56;70.37;102495.09;4956001;28;20023;-85
2023/12/28 07:34:55;;;;;;;0.10;0.10;;;;;;;4.54;70.71;102482.28;4973247;28;20042;-85
2023/12/28 07:37:20;;;;;;;0.10;0.10;;;;;;;4.71;70.66;102497.72;4963321;28;20031;-84
2023/12/28 07:39:49;;;;;;;0.10;0.10;;;;;;;4.77;70.92;102513.16;4938103;29;20046;-86
2023/12/28 07:42:15;;;;;;;0.10;0.10;;;;;;;4.75;70.92;102496.06;4955208;28;20508;-90
2023/12/28 07:44:40;;;;;;;0.10;0.10;;;;;;;4.88;71.04;102505.50;4964455;28;20027;-89
2023/12/28 07:47:06;;;;;;;0.20;0.20;;;;;;;4.89;71.18;102497.81;4962659;28;20425;-84
2023/12/28 07:49:32;;;;;;;0.20;0.20;;;;;;;5.06;70.49;102512.44;4974268;28;20743;-85
2023/12/28 07:51:57;;;;;;;0.20;0.20;;;;;;;5.13;70.30;102507.34;4960840;28;20039;-87
2023/12/28 07:54:23;;;;;;;0.10;0.10;;;;;;;5.23;70.07;102508.22;4940822;28;20033;-88
2023/12/28 07:56:48;;;;;;;0.10;0.10;;;;;;;5.32;69.57;102521.09;4940887;28;20027;-89
2023/12/28 07:59:14;;;;;;;0.20;0.20;;;;;;;5.47;69.20;102525.41;4954070;28;20118;-90
2023/12/28 08:01:39;;;;;;;0.10;0.10;;;;;;;5.48;68.85;102527.09;4955724;28;20045;-89
2023/12/28 08:04:05;;;;;;;0.10;0.10;;;;;;;5.57;68.25;102524.56;4957734;28;20035;-86
2023/12/28 08:06:32;;;;;;;0.20;0.20;;;;;;;5.57;68.51;102513.44;4974699;28;20481;-86
2023/12/28 08:09:00;;;;;;;0.10;0.10;;;;;;;5.76;67.65;102513.47;4973958;28;20031;-88
2023/12/28 08:11:26;;;;;;;0.10;0.10;;;;;;;5.67;67.70;102515.16;4951446;28;20397;-88
2023/12/28 08:13:52;;;;;;;0.10;0.10;;;;;;;5.69;67.76;102504.03;4948140;28;20395;-90
2023/12/28 08:16:17;;;;;;;0.10;0.10;;;;;;;5.86;67.56;102505.78;4958692;28;20050;-88
2023/12/28 08:18:43;;;;;;;0.20;0.20;;;;;;;5.85;68.05;102507.50;4976777;28;20039;-89
2023/12/28 08:21:08;;;;;;;0.10;0.10;;;;;;;5.92;67.53;102498.13;4955815;28;20055;-87
2023/12/28 08:23:34;;;;;;;0.10;0.10;;;;;;;6.10;65.23;102504.97;4959973;28;20413;-87
2023/12/28 08:25:59;;;;;;;0.20;0.20;;;;;;;6.00;64.78;102484.41;4953415;28;20114;-87
2023/12/28 08:28:26;;;;;;;0.10;0.10;;;;;;;6.16;64.90;102499.81;4969587;28;20077;-92
2023/12/28 08:30:51;;;;;;;0.10;0.10;;;;;;;6.29;64.78;102506.63;4959006;28;20033;-91
2023/12/28 08:33:17;;;;;;;0.20;0.20;;;;;;;6.41;64.22;102505.78;4957656;28;20039;-89
2023/12/28 08:35:42;;;;;;;0.10;0.10;;;;;;;6.45;61.96;102499.75;4977314;28;20045;-89
2023/12/28 08:38:08;;;;;;;0.20;0.20;;;;;;;6.50;60.90;102522.06;4958300;28;20118;-90
2023/12/28 08:40:34;;;;;;;0.20;0.20;;;;;;;6.63;60.92;102514.31;4957790;28;20110;-90
2023/12/28 08:43:00;;;;;;;0.20;0.20;;;;;;;6.60;62.26;102503.19;4972123;28;20161;-87
2023/12/28 08:45:25;;;;;;;0.20;0.20;;;;;;;6.74;61.72;102502.25;4952249;28;20035;-86
2023/12/28 08:47:51;;;;;;;0.10;0.10;;;;;;;6.80;61.29;102490.25;4938166;29;20037;-88
2023/12/28 08:50:17;;;;;;;0.20;0.20;;;;;;;6.81;60.86;102473.09;4938096;28;20027;-90
2023/12/28 08:52:42;;;;;;;0.20;0.20;;;;;;;6.88;60.35;102487.63;4957129;28;20030;-90
2023/12/28 08:55:09;;;;;;;0.10;0.10;;;;;;;6.92;60.08;102473.91;4946245;28;20031;-90
2023/12/28 08:57:34;;;;;;;0.10;0.10;;;;;;;7.06;60.08;102492.69;4975695;28;20038;-92
2023/12/28 09:00:00;;;;;;;0.20;0.20;;;;;;;7.07;59.99;102493.56;4959106;28;20034;-87
2023/12/28 09:02:29;;;;;;;0.20;0.20;;;;;;;7.09;60.34;102487.56;4974499;28;20038;-91
2023/12/28 09:04:54;;;;;;;0.20;0.20;;;;;;;6.96;60.45;102465.28;4960936;28;20033;-91
2023/12/28 09:07:20;;;;;;;0.10;0.10;;;;;;;7.04;60.98;102478.13;4978559;28;20028;-90
2023/12/28 09:09:46;;;;;;;0.10;0.10;;;;;;;7.12;60.84;102482.38;4954252;28;20039;-90
2023/12/28 09:12:11;;;;;;;0.20;0.20;;;;;;;7.08;61.11;102480.69;4954537;29;20042;-88
2023/12/28 09:14:37;;;;;;;0.10;0.10;;;;;;;7.17;61.70;102483.19;4935667;28;20059;-88
2023/12/28 09:17:03;;;;;;;0.20;0.20;;;;;;;6.90;61.38;102440.47;4965796;28;20054;-88
2023/12/28 09:19:28;;;;;;;0.10;0.10;;;;;;;7.28;61.28;102466.88;4946714;28;20402;-89
2023/12/28 09:21:54;;;;;;;0.20;0.20;;;;;;;7.22;60.92;102457.44;4941089;28;20034;-91
2023/12/28 09:24:20;;;;;;;0.10;0.10;;;;;;;7.26;60.79;102432.53;4974789;28;20101;-91
2023/12/28 09:26:46;;;;;;;0.20;0.20;;;;;;;7.49;60.97;102474.47;4972554;28;20447;-91
2023/12/28 09:29:11;;;;;;;0.20;0.20;;;;;;;7.52;59.98;102455.53;4956204;28;20035;-87
2023/12/28 09:31:37;;;;;;;0.20;0.20;;;;;;;7.54;59.43;102448.66;4972266;28;20034;-86
2023/12/28 09:34:04;;;;;;;0.20;0.20;;;;;;;7.70;58.89;102464.00;4955660;28;20031;-92
2023/12/28 09:36:31;;;;;;;0.10;0.10;;;;;;;7.53;58.82;102423.78;4955880;28;20045;-90
2023/12/28 09:38:57;;;;;;;0.20;0.20;;;;;;;7.83;59.18;102456.16;4954217;28;20031;-89
2023/12/28 09:41:25;;;;;;;0.13;0.13;;;;;;;7.86;57.82;102425.19;4929234;28;20085;-86
2023/12/28 09:43:58;;;;;;;0.20;0.20;;;;;;;8.05;58.52;102432.75;4956454;28;20062;-89
2023/12/28 09:46:26;;;;;;;0.20;0.20;;;;;;;8.22;58.47;102426.56;4939901;28;20050;-88
2023/12/28 09:48:53;;;;;;;0.20;0.20;;;;;;;8.32;57.04;102426.47;4955298;28;20089;-87
2023/12/28 09:51:20;;;;;;;0.20;0.20;;;;;;;8.24;55.98;102405.06;4960577;28;20034;-89
2023/12/28 09:53:45;;;;;;;0.20;0.20;;;;;;;8.16;56.89;102385.38;4954502;28;20026;-85
2023/12/28 09:56:13;;;;;;;0.20;0.20;;;;;;;8.31;56.90;102401.53;4954907;28;20082;-89
2023/12/28 09:58:38;;;;;;;0.10;0.10;;;;;;;8.49;55.72;102402.25;4970372;28;20034;-88
2023/12/28 10:01:04;;;;;;;0.10;0.10;;;;;;;8.41;55.41;102388.59;4939153;28;20031;-88
2023/12/28 10:03:29;;;;;;;0.20;0.20;;;;;;;8.29;54.83;102371.50;4959125;28;20414;-87
2023/12/28 10:05:55;;;;;;;0.10;0.10;;;;;;;8.52;55.13;102397.88;4939870;28;20077;-90
2023/12/28 10:08:20;;;;;;;0.20;0.20;;;;;;;8.72;55.22;102389.91;4970812;28;20048;-86
2023/12/28 10:10:50;;;;;;;0.20;0.20;;;;;;;8.77;54.58;102362.31;4970941;28;20038;-91
2023/12/28 10:13:16;;;;;;;0.20;0.20;;;;;;;8.83;54.63;102372.53;4971709;28;20591;-90
2023/12/28 10:15:43;;;;;;;0.20;0.20;;;;;;;8.94;54.90;102371.53;4952954;28;20059;-87
2023/12/28 10:18:08;;;;;;;0.20;0.20;;;;;;;9.12;55.61;102368.69;4939845;28;20551;-89
2023/12/28 10:20:34;;;;;;;0.20;0.20;;;;;;;9.14;54.48;102362.66;4956182;28;20038;-90
2023/12/28 10:23:00;;;;;;;0.10;0.10;;;;;;;9.21;53.62;102353.06;4953897;28;20037;-90
2023/12/28 10:25:29;;;;;;;0.20;0.20;;;;;;;9.25;53.96;102351.28;4943701;28;20038;-87
2023/12/28 10:27:55;;;;;;;0.10;0.10;;;;;;;9.31;54.21;102339.13;4933705;28;20042;-90
2023/12/28 10:30:21;;;;;;;0.20;0.20;;;;;;;9.20;53.33;102330.69;4950830;28;20561;-85
2023/12/28 10:32:47;;;;;;;0.20;0.20;;;;;;;9.19;53.45;102313.50;4948093;28;20489;-87
2023/12/28 10:35:12;;;;;;;0.20;0.20;;;;;;;9.29;53.40;102309.88;4954203;28;20063;-91
2023/12/28 10:37:41;;;;;;;0.20;0.20;;;;;;;9.35;53.54;102296.03;4954190;28;20033;-88
2023/12/28 10:40:07;;;;;;;0.10;0.10;;;;;;;9.37;53.17;102297.69;4940996;28;20031;-89
2023/12/28 10:42:37;;;;;;;0.20;0.20;;;;;;;9.44;53.96;102288.97;4964841;28;20065;-92
2023/12/28 10:45:07;;;;;;;0.20;0.20;;;;;;;9.37;53.62;102266.69;4955815;28;20061;-88
2023/12/28 10:47:34;;;;;;;0.20;0.20;;;;;;;9.72;53.22;102296.19;4955957;28;20054;-89
2023/12/28 10:50:02;;;;;;;0.20;0.20;;;;;;;9.67;53.73;102296.28;4935228;28;20047;-88
2023/12/28 10:52:28;;;;;;;0.20;0.20;;;;;;;9.69;53.20;102296.25;4925404;28;20026;-92
2023/12/28 10:54:57;;;;;;;0.20;0.20;;;;;;;9.64;53.40;102290.34;4937510;29;20031;-88
2023/12/28 10:57:32;;;;;;;0.20;0.20;;;;;;;9.61;52.05;102282.63;4939044;29;20035;-90
2023/12/28 11:00:10;;;;;;;0.10;0.10;;;;;;;9.79;52.39;102295.22;4940418;29;20027;-86
2023/12/28 11:02:45;;;;;;;0.20;0.20;;;;;;;9.85;51.95;102296.84;4935023;29;20030;-92
2023/12/28 11:05:12;;;;;;;0.20;0.20;;;;;;;9.86;52.33;102280.44;4936501;29;20032;-87
2023/12/28 11:07:37;;;;;;;0.20;0.20;;;;;;;9.92;52.22;102286.31;4952324;29;20409;-90
2023/12/28 11:10:04;;;;;;;0.20;0.20;;;;;;;9.95;52.43;102260.44;4953646;29;20031;-92
2023/12/28 11:12:31;;;;;;;0.20;0.20;;;;;;;10.19;52.31;102269.41;4951700;29;20116;-93
2023/12/28 11:14:56;;;;;;;0.20;0.20;;;;;;;10.02;52.88;102240.44;4935406;29;20493;-88
2023/12/28 11:17:22;;;;;;;0.20;0.20;;;;;;;10.16;52.55;102253.09;4936115;29;20107;-91
2023/12/28 11:19:48;;;;;;;0.20;0.20;;;;;;;10.17;52.25;102240.13;4940035;28;20041;-92
2023/12/28 11:22:13;;;;;;;0.20;0.20;;;;;;;10.31;52.57;102252.78;4952591;28;20573;-87
2023/12/28 11:24:39;;;;;;;0.20;0.20;;;;;;;10.33;52.64;102245.88;4955973;28;20062;-87
2023/12/28 11:27:05;;;;;;;0.20;0.20;;;;;;;10.46;52.29;102242.13;4954676;28;20553;-91
2023/12/28 11:29:31;;;;;;;0.20;0.20;;;;;;;10.47;52.05;102236.06;4954586;28;20034;-87